sensor_id;sensor_type;location;lat;lon;timestamp;pressure;altitude;pressure_sealevel;temperature;humidity
12358;BME280;6243;51.244;6.774;2024-01-25T00:01:48;115150.97;;;-141.28;46.09
12358;BME280;6243;51.244;6.774;2024-01-25T00:04:13;115150.97;;;-141.28;46.00
12358;BME280;6243;51.244;6.774;2024-01-25T00:06:40;115150.97;;;-141.28;45.48
12358;BME280;6243;51.244;6.774;2024-01-25T00:09:06;115150.97;;;-141.28;45.41
12358;BME280;6243;51.244;6.774;2024-01-25T00:11:31;115150.97;;;-141.28;45.69
12358;BME280;6243;51.244;6.774;2024-01-25T00:13:57;115150.97;;;-141.28;46.07
12358;BME280;6243;51.244;6.774;2024-01-25T00:16:22;115150.97;;;-141.28;45.53
12358;BME280;6243;51.244;6.774;2024-01-25T00:18:47;115150.97;;;-141.28;45.41
12358;BME280;6243;51.244;6.774;2024-01-25T00:21:13;115150.97;;;-141.28;45.86
12358;BME280;6243;51.244;6.774;2024-01-25T00:23:40;115150.97;;;-141.28;45.88
12358;BME280;6243;51.244;6.774;2024-01-25T00:26:05;115150.97;;;-141.28;45.83
12358;BME280;6243;51.244;6.774;2024-01-25T00:28:31;115150.97;;;-141.28;46.04
12358;BME280;6243;51.244;6.774;2024-01-25T00:30:56;115150.97;;;-141.28;45.99
12358;BME280;6243;51.244;6.774;2024-01-25T00:33:22;115150.97;;;-141.28;46.04
12358;BME280;6243;51.244;6.774;2024-01-25T00:35:49;115150.97;;;-141.28;46.43
12358;BME280;6243;51.244;6.774;2024-01-25T00:38:15;115150.97;;;-141.28;46.23
12358;BME280;6243;51.244;6.774;2024-01-25T00:40:42;115150.97;;;-141.28;46.57
12358;BME280;6243;51.244;6.774;2024-01-25T00:43:09;115150.97;;;-141.28;46.30
12358;BME280;6243;51.244;6.774;2024-01-25T00:45:35;115150.97;;;-141.28;45.86
12358;BME280;6243;51.244;6.774;2024-01-25T00:48:01;115150.97;;;-141.28;45.55
12358;BME280;6243;51.244;6.774;2024-01-25T00:50:27;115150.97;;;-141.28;45.79
12358;BME280;6243;51.244;6.774;2024-01-25T00:52:53;115150.97;;;-141.28;46.08
12358;BME280;6243;51.244;6.774;2024-01-25T00:55:19;115150.97;;;-141.28;45.95
12358;BME280;6243;51.244;6.774;2024-01-25T00:57:47;115150.97;;;-141.28;46.05
12358;BME280;6243;51.244;6.774;2024-01-25T01:00:13;115150.97;;;-141.28;45.74
12358;BME280;6243;51.244;6.774;2024-01-25T01:02:40;115150.97;;;-141.28;45.83
12358;BME280;6243;51.244;6.774;2024-01-25T01:05:09;115150.97;;;-141.28;45.51
12358;BME280;6243;51.244;6.774;2024-01-25T01:07:35;115150.97;;;-141.28;46.21
12358;BME280;6243;51.244;6.774;2024-01-25T01:10:00;115150.97;;;-141.28;46.08
12358;BME280;6243;51.244;6.774;2024-01-25T01:12:26;115150.97;;;-141.28;45.78
12358;BME280;6243;51.244;6.774;2024-01-25T01:14:53;115150.97;;;-141.28;45.97
12358;BME280;6243;51.244;6.774;2024-01-25T01:17:18;115150.97;;;-141.28;45.35
12358;BME280;6243;51.244;6.774;2024-01-25T01:19:44;115150.97;;;-141.28;45.53
12358;BME280;6243;51.244;6.774;2024-01-25T01:22:09;115150.97;;;-141.28;45.58
12358;BME280;6243;51.244;6.774;2024-01-25T01:24:35;115150.97;;;-141.28;45.54
12358;BME280;6243;51.244;6.774;2024-01-25T01:27:00;115150.97;;;-141.28;46.46
12358;BME280;6243;51.244;6.774;2024-01-25T01:29:26;115150.97;;;-141.28;46.01
12358;BME280;6243;51.244;6.774;2024-01-25T01:31:53;115150.97;;;-141.28;46.08
12358;BME280;6243;51.244;6.774;2024-01-25T01:34:18;115150.97;;;-141.28;45.91
12358;BME280;6243;51.244;6.774;2024-01-25T01:36:44;115150.97;;;-141.28;45.76
12358;BME280;6243;51.244;6.774;2024-01-25T01:39:09;115150.97;;;-141.28;45.63
12358;BME280;6243;51.244;6.774;2024-01-25T01:41:35;115150.97;;;-141.28;45.63
12358;BME280;6243;51.244;6.774;2024-01-25T01:44:00;115150.97;;;-141.28;46.07
12358;BME280;6243;51.244;6.774;2024-01-25T01:46:32;115150.97;;;-141.28;45.66
12358;BME280;6243;51.244;6.774;2024-01-25T01:48:59;115150.97;;;-141.28;45.86
12358;BME280;6243;51.244;6.774;2024-01-25T01:51:25;115150.97;;;-141.28;45.41
12358;BME280;6243;51.244;6.774;2024-01-25T01:53:51;115150.97;;;-141.28;45.96
12358;BME280;6243;51.244;6.774;2024-01-25T01:56:17;115150.97;;;-141.28;45.94
12358;BME280;6243;51.244;6.774;2024-01-25T01:58:43;115150.97;;;-141.28;45.46
12358;BME280;6243;51.244;6.774;2024-01-25T02:01:13;115150.97;;;-141.28;45.16
12358;BME280;6243;51.244;6.774;2024-01-25T02:03:38;115150.97;;;-141.28;45.61
12358;BME280;6243;51.244;6.774;2024-01-25T02:06:06;115150.97;;;-141.28;45.28
12358;BME280;6243;51.244;6.774;2024-01-25T02:08:32;115150.97;;;-141.28;45.86
12358;BME280;6243;51.244;6.774;2024-01-25T02:10:57;115150.97;;;-141.28;45.21
12358;BME280;6243;51.244;6.774;2024-01-25T02:13:23;115150.97;;;-141.28;45.61
12358;BME280;6243;51.244;6.774;2024-01-25T02:15:49;115150.97;;;-141.28;45.84
12358;BME280;6243;51.244;6.774;2024-01-25T02:18:14;115150.97;;;-141.28;45.67
12358;BME280;6243;51.244;6.774;2024-01-25T02:20:40;115150.97;;;-141.28;45.66
12358;BME280;6243;51.244;6.774;2024-01-25T02:23:07;115150.97;;;-141.28;45.48
12358;BME280;6243;51.244;6.774;2024-01-25T02:25:32;115150.97;;;-141.28;45.44
12358;BME280;6243;51.244;6.774;2024-01-25T02:27:58;115150.97;;;-141.28;45.36
12358;BME280;6243;51.244;6.774;2024-01-25T02:30:23;115150.97;;;-141.28;45.25
12358;BME280;6243;51.244;6.774;2024-01-25T02:32:49;115150.97;;;-141.28;45.26
12358;BME280;6243;51.244;6.774;2024-01-25T02:35:15;115150.97;;;-141.28;45.59
12358;BME280;6243;51.244;6.774;2024-01-25T02:37:40;115150.97;;;-141.28;45.69
12358;BME280;6243;51.244;6.774;2024-01-25T02:40:08;115150.97;;;-141.28;45.71
12358;BME280;6243;51.244;6.774;2024-01-25T02:42:34;115150.97;;;-141.28;45.82
12358;BME280;6243;51.244;6.774;2024-01-25T02:44:59;115150.97;;;-141.28;45.56
12358;BME280;6243;51.244;6.774;2024-01-25T02:47:25;115150.97;;;-141.28;45.84
12358;BME280;6243;51.244;6.774;2024-01-25T02:49:50;115150.97;;;-141.28;46.04
12358;BME280;6243;51.244;6.774;2024-01-25T02:52:16;115150.97;;;-141.28;45.86
12358;BME280;6243;51.244;6.774;2024-01-25T02:54:41;115150.97;;;-141.28;45.99
12358;BME280;6243;51.244;6.774;2024-01-25T02:57:08;115150.97;;;-141.28;45.76
12358;BME280;6243;51.244;6.774;2024-01-25T02:59:33;115150.97;;;-141.28;45.80
12358;BME280;6243;51.244;6.774;2024-01-25T03:01:59;115150.97;;;-141.28;45.94
12358;BME280;6243;51.244;6.774;2024-01-25T03:04:24;115150.97;;;-141.28;46.06
12358;BME280;6243;51.244;6.774;2024-01-25T03:06:50;115150.97;;;-141.28;45.83
12358;BME280;6243;51.244;6.774;2024-01-25T03:09:15;115150.97;;;-141.28;45.92
12358;BME280;6243;51.244;6.774;2024-01-25T03:11:41;115150.97;;;-141.28;46.07
12358;BME280;6243;51.244;6.774;2024-01-25T03:14:08;115150.97;;;-141.28;45.87
12358;BME280;6243;51.244;6.774;2024-01-25T03:16:33;115150.97;;;-141.28;45.82
12358;BME280;6243;51.244;6.774;2024-01-25T03:18:59;115150.97;;;-141.28;46.82
12358;BME280;6243;51.244;6.774;2024-01-25T03:21:24;115150.97;;;-141.28;46.06
12358;BME280;6243;51.244;6.774;2024-01-25T03:23:50;115150.97;;;-141.28;45.99
12358;BME280;6243;51.244;6.774;2024-01-25T03:26:16;115150.97;;;-141.28;45.62
12358;BME280;6243;51.244;6.774;2024-01-25T03:28:42;115150.97;;;-141.28;45.56
12358;BME280;6243;51.244;6.774;2024-01-25T03:31:08;115150.97;;;-141.28;45.61
12358;BME280;6243;51.244;6.774;2024-01-25T03:33:34;115150.97;;;-141.28;45.57
12358;BME280;6243;51.244;6.774;2024-01-25T03:36:01;115150.97;;;-141.28;45.59
12358;BME280;6243;51.244;6.774;2024-01-25T03:38:27;115150.97;;;-141.28;45.62
12358;BME280;6243;51.244;6.774;2024-01-25T03:40:52;115150.97;;;-141.28;45.58
12358;BME280;6243;51.244;6.774;2024-01-25T03:43:18;115150.97;;;-141.28;45.68
12358;BME280;6243;51.244;6.774;2024-01-25T03:45:43;115150.97;;;-141.28;45.48
12358;BME280;6243;51.244;6.774;2024-01-25T03:48:10;115150.97;;;-141.28;45.53
12358;BME280;6243;51.244;6.774;2024-01-25T03:50:36;115150.97;;;-141.28;45.35
12358;BME280;6243;51.244;6.774;2024-01-25T03:53:01;115150.97;;;-141.28;45.29
12358;BME280;6243;51.244;6.774;2024-01-25T03:55:27;115150.97;;;-141.28;45.23
12358;BME280;6243;51.244;6.774;2024-01-25T03:57:52;115150.97;;;-141.28;45.17
12358;BME280;6243;51.244;6.774;2024-01-25T04:00:18;115150.97;;;-141.28;45.01
12358;BME280;6243;51.244;6.774;2024-01-25T04:02:44;115150.97;;;-141.28;45.45
12358;BME280;6243;51.244;6.774;2024-01-25T04:05:10;115150.97;;;-141.28;45.25
12358;BME280;6243;51.244;6.774;2024-01-25T04:07:36;115150.97;;;-141.28;45.19
12358;BME280;6243;51.244;6.774;2024-01-25T04:10:02;115150.97;;;-141.28;45.46
12358;BME280;6243;51.244;6.774;2024-01-25T04:12:27;115150.97;;;-141.28;45.55
12358;BME280;6243;51.244;6.774;2024-01-25T04:14:53;115150.97;;;-141.28;45.33
12358;BME280;6243;51.244;6.774;2024-01-25T04:17:18;115150.97;;;-141.28;45.26
12358;BME280;6243;51.244;6.774;2024-01-25T04:19:44;115150.97;;;-141.28;45.00
12358;BME280;6243;51.244;6.774;2024-01-25T04:22:10;115150.97;;;-141.28;44.96
12358;BME280;6243;51.244;6.774;2024-01-25T04:24:36;115150.97;;;-141.28;45.11
12358;BME280;6243;51.244;6.774;2024-01-25T04:27:02;115150.97;;;-141.28;44.80
12358;BME280;6243;51.244;6.774;2024-01-25T04:29:28;115150.97;;;-141.28;45.08
12358;BME280;6243;51.244;6.774;2024-01-25T04:31:53;115150.97;;;-141.28;45.13
12358;BME280;6243;51.244;6.774;2024-01-25T04:34:19;115150.97;;;-141.28;44.93
12358;BME280;6243;51.244;6.774;2024-01-25T04:36:44;115150.97;;;-141.28;45.35
12358;BME280;6243;51.244;6.774;2024-01-25T04:39:11;115150.97;;;-141.28;45.11
12358;BME280;6243;51.244;6.774;2024-01-25T04:41:37;115150.97;;;-141.28;44.93
12358;BME280;6243;51.244;6.774;2024-01-25T04:44:02;115150.97;;;-141.28;44.90
12358;BME280;6243;51.244;6.774;2024-01-25T04:46:28;115150.97;;;-141.28;45.01
12358;BME280;6243;51.244;6.774;2024-01-25T04:48:54;115150.97;;;-141.28;44.98
12358;BME280;6243;51.244;6.774;2024-01-25T04:51:19;115150.97;;;-141.28;44.94
12358;BME280;6243;51.244;6.774;2024-01-25T04:53:45;115150.97;;;-141.28;44.86
12358;BME280;6243;51.244;6.774;2024-01-25T04:56:12;115150.97;;;-141.28;45.08
12358;BME280;6243;51.244;6.774;2024-01-25T04:58:37;115150.97;;;-141.28;45.10
12358;BME280;6243;51.244;6.774;2024-01-25T05:01:03;115150.97;;;-141.28;45.05
12358;BME280;6243;51.244;6.774;2024-01-25T05:03:28;115150.97;;;-141.28;45.05
12358;BME280;6243;51.244;6.774;2024-01-25T05:05:54;115150.97;;;-141.28;45.28
12358;BME280;6243;51.244;6.774;2024-01-25T05:08:19;115150.97;;;-141.28;45.08
12358;BME280;6243;51.244;6.774;2024-01-25T05:10:45;115150.97;;;-141.28;45.00
12358;BME280;6243;51.244;6.774;2024-01-25T05:13:12;115150.97;;;-141.28;44.85
12358;BME280;6243;51.244;6.774;2024-01-25T05:15:38;115150.97;;;-141.28;44.90
12358;BME280;6243;51.244;6.774;2024-01-25T05:18:04;115150.97;;;-141.28;44.98
12358;BME280;6243;51.244;6.774;2024-01-25T05:20:29;115150.97;;;-141.28;45.05
12358;BME280;6243;51.244;6.774;2024-01-25T05:22:55;115150.97;;;-141.28;45.09
12358;BME280;6243;51.244;6.774;2024-01-25T05:25:21;115150.97;;;-141.28;45.14
12358;BME280;6243;51.244;6.774;2024-01-25T05:27:46;115150.97;;;-141.28;44.87
12358;BME280;6243;51.244;6.774;2024-01-25T05:30:13;115150.97;;;-141.28;45.04
12358;BME280;6243;51.244;6.774;2024-01-25T05:32:39;115150.97;;;-141.28;45.13
12358;BME280;6243;51.244;6.774;2024-01-25T05:35:05;115150.97;;;-141.28;45.25
12358;BME280;6243;51.244;6.774;2024-01-25T05:37:31;115150.97;;;-141.28;44.92
12358;BME280;6243;51.244;6.774;2024-01-25T05:39:57;115150.97;;;-141.28;45.13
12358;BME280;6243;51.244;6.774;2024-01-25T05:42:22;115150.97;;;-141.28;45.23
12358;BME280;6243;51.244;6.774;2024-01-25T05:44:48;115150.97;;;-141.28;45.18
12358;BME280;6243;51.244;6.774;2024-01-25T05:47:14;115150.97;;;-141.28;44.96
12358;BME280;6243;51.244;6.774;2024-01-25T05:49:40;115150.97;;;-141.28;45.11
12358;BME280;6243;51.244;6.774;2024-01-25T05:52:05;115150.97;;;-141.28;45.36
12358;BME280;6243;51.244;6.774;2024-01-25T05:54:31;115150.97;;;-141.28;45.23
12358;BME280;6243;51.244;6.774;2024-01-25T05:56:56;115150.97;;;-141.28;45.00
12358;BME280;6243;51.244;6.774;2024-01-25T05:59:22;115150.97;;;-141.28;45.18
12358;BME280;6243;51.244;6.774;2024-01-25T06:01:47;115150.97;;;-141.28;45.30
12358;BME280;6243;51.244;6.774;2024-01-25T06:04:14;115150.97;;;-141.28;45.33
12358;BME280;6243;51.244;6.774;2024-01-25T06:06:40;115150.97;;;-141.28;45.15
12358;BME280;6243;51.244;6.774;2024-01-25T06:09:05;115150.97;;;-141.28;45.10
12358;BME280;6243;51.244;6.774;2024-01-25T06:11:31;115150.97;;;-141.28;45.18
12358;BME280;6243;51.244;6.774;2024-01-25T06:13:56;115150.97;;;-141.28;45.15
12358;BME280;6243;51.244;6.774;2024-01-25T06:16:22;115150.97;;;-141.28;45.39
12358;BME280;6243;51.244;6.774;2024-01-25T06:18:47;115150.97;;;-141.28;45.28
12358;BME280;6243;51.244;6.774;2024-01-25T06:21:14;115150.97;;;-141.28;45.11
12358;BME280;6243;51.244;6.774;2024-01-25T06:23:40;115150.97;;;-141.28;45.12
12358;BME280;6243;51.244;6.774;2024-01-25T06:26:06;115150.97;;;-141.28;45.13
12358;BME280;6243;51.244;6.774;2024-01-25T06:28:31;115150.97;;;-141.28;45.26
12358;BME280;6243;51.244;6.774;2024-01-25T06:30:56;115150.97;;;-141.28;45.29
12358;BME280;6243;51.244;6.774;2024-01-25T06:33:22;115150.97;;;-141.28;45.31
12358;BME280;6243;51.244;6.774;2024-01-25T06:35:47;115150.97;;;-141.28;45.11
12358;BME280;6243;51.244;6.774;2024-01-25T06:38:14;115150.97;;;-141.28;45.43
12358;BME280;6243;51.244;6.774;2024-01-25T06:40:40;115150.97;;;-141.28;45.26
12358;BME280;6243;51.244;6.774;2024-01-25T06:43:05;115150.97;;;-141.28;45.39
12358;BME280;6243;51.244;6.774;2024-01-25T06:45:31;115150.97;;;-141.28;45.48
12358;BME280;6243;51.244;6.774;2024-01-25T06:47:56;115150.97;;;-141.28;45.43
12358;BME280;6243;51.244;6.774;2024-01-25T06:50:22;115150.97;;;-141.28;45.67
12358;BME280;6243;51.244;6.774;2024-01-25T06:52:47;115150.97;;;-141.28;45.70
12358;BME280;6243;51.244;6.774;2024-01-25T06:55:14;115150.97;;;-141.28;45.98
12358;BME280;6243;51.244;6.774;2024-01-25T06:57:40;115150.97;;;-141.28;45.79
12358;BME280;6243;51.244;6.774;2024-01-25T07:00:06;115150.97;;;-141.28;45.59
12358;BME280;6243;51.244;6.774;2024-01-25T07:02:32;115150.97;;;-141.28;45.68
12358;BME280;6243;51.244;6.774;2024-01-25T07:04:57;115150.97;;;-141.28;45.73
12358;BME280;6243;51.244;6.774;2024-01-25T07:07:23;115150.97;;;-141.28;45.66
12358;BME280;6243;51.244;6.774;2024-01-25T07:09:48;115150.97;;;-141.28;45.82
12358;BME280;6243;51.244;6.774;2024-01-25T07:12:15;115150.97;;;-141.28;45.90
12358;BME280;6243;51.244;6.774;2024-01-25T07:14:41;115150.97;;;-141.28;45.99
12358;BME280;6243;51.244;6.774;2024-01-25T07:17:06;115150.97;;;-141.28;45.79
12358;BME280;6243;51.244;6.774;2024-01-25T07:19:32;115150.97;;;-141.28;46.03
12358;BME280;6243;51.244;6.774;2024-01-25T07:21:57;115150.97;;;-141.28;45.92
12358;BME280;6243;51.244;6.774;2024-01-25T07:24:22;115150.97;;;-141.28;45.79
12358;BME280;6243;51.244;6.774;2024-01-25T07:26:48;115150.97;;;-141.28;45.76
12358;BME280;6243;51.244;6.774;2024-01-25T07:29:15;115150.97;;;-141.28;45.74
12358;BME280;6243;51.244;6.774;2024-01-25T07:31:40;115150.97;;;-141.28;45.82
12358;BME280;6243;51.244;6.774;2024-01-25T07:34:06;115150.97;;;-141.28;45.99
12358;BME280;6243;51.244;6.774;2024-01-25T07:36:31;115150.97;;;-141.28;46.08
12358;BME280;6243;51.244;6.774;2024-01-25T07:38:57;115150.97;;;-141.28;46.15
12358;BME280;6243;51.244;6.774;2024-01-25T07:41:22;115150.97;;;-141.28;46.24
12358;BME280;6243;51.244;6.774;2024-01-25T07:43:48;115150.97;;;-141.28;46.29
12358;BME280;6243;51.244;6.774;2024-01-25T07:46:15;115150.97;;;-141.28;46.42
12358;BME280;6243;51.244;6.774;2024-01-25T07:48:40;115150.97;;;-141.28;46.67
12358;BME280;6243;51.244;6.774;2024-01-25T07:51:10;115150.97;;;-141.28;46.42
12358;BME280;6243;51.244;6.774;2024-01-25T07:53:36;115150.97;;;-141.28;46.42
12358;BME280;6243;51.244;6.774;2024-01-25T07:56:01;115150.97;;;-141.28;46.69
12358;BME280;6243;51.244;6.774;2024-01-25T07:58:27;115150.97;;;-141.28;46.51
12358;BME280;6243;51.244;6.774;2024-01-25T08:00:52;115150.97;;;-141.28;46.75
12358;BME280;6243;51.244;6.774;2024-01-25T08:03:19;115150.97;;;-141.28;46.84
12358;BME280;6243;51.244;6.774;2024-01-25T08:05:45;115150.97;;;-141.28;46.75
12358;BME280;6243;51.244;6.774;2024-01-25T08:08:10;115150.97;;;-141.28;46.99
12358;BME280;6243;51.244;6.774;2024-01-25T08:10:36;115150.97;;;-141.28;47.09
12358;BME280;6243;51.244;6.774;2024-01-25T08:13:02;115150.97;;;-141.28;47.09
12358;BME280;6243;51.244;6.774;2024-01-25T08:15:27;115150.97;;;-141.28;46.84
12358;BME280;6243;51.244;6.774;2024-01-25T08:17:53;115150.97;;;-141.28;47.02
12358;BME280;6243;51.244;6.774;2024-01-25T08:20:20;115150.97;;;-141.28;46.99
12358;BME280;6243;51.244;6.774;2024-01-25T08:22:45;115150.97;;;-141.28;47.18
12358;BME280;6243;51.244;6.774;2024-01-25T08:25:11;115150.97;;;-141.28;47.44
12358;BME280;6243;51.244;6.774;2024-01-25T08:27:36;115150.97;;;-141.28;47.28
12358;BME280;6243;51.244;6.774;2024-01-25T08:30:06;115150.97;;;-141.28;47.75
12358;BME280;6243;51.244;6.774;2024-01-25T08:32:32;115150.97;;;-141.28;48.10
12358;BME280;6243;51.244;6.774;2024-01-25T08:34:57;115150.97;;;-141.28;47.71
12358;BME280;6243;51.244;6.774;2024-01-25T08:37:24;115150.97;;;-141.28;47.96
12358;BME280;6243;51.244;6.774;2024-01-25T08:39:50;115150.97;;;-141.28;47.70
12358;BME280;6243;51.244;6.774;2024-01-25T08:42:16;115150.97;;;-141.28;47.82
12358;BME280;6243;51.244;6.774;2024-01-25T08:44:42;115150.97;;;-141.28;47.88
12358;BME280;6243;51.244;6.774;2024-01-25T08:47:07;115150.97;;;-141.28;48.45
12358;BME280;6243;51.244;6.774;2024-01-25T08:49:38;115150.97;;;-141.28;48.83
12358;BME280;6243;51.244;6.774;2024-01-25T08:52:04;115150.97;;;-141.28;48.79
12358;BME280;6243;51.244;6.774;2024-01-25T08:54:31;115150.97;;;-141.28;48.67
12358;BME280;6243;51.244;6.774;2024-01-25T08:56:56;115150.97;;;-141.28;48.62
12358;BME280;6243;51.244;6.774;2024-01-25T08:59:22;115150.97;;;-141.28;48.58
12358;BME280;6243;51.244;6.774;2024-01-25T09:01:48;115150.97;;;-141.28;48.66
12358;BME280;6243;51.244;6.774;2024-01-25T09:04:13;115150.97;;;-141.28;48.64
12358;BME280;6243;51.244;6.774;2024-01-25T09:06:39;115150.97;;;-141.28;49.09
12358;BME280;6243;51.244;6.774;2024-01-25T09:09:05;115150.97;;;-141.28;48.95
12358;BME280;6243;51.244;6.774;2024-01-25T09:11:32;115150.97;;;-141.28;49.05
12358;BME280;6243;51.244;6.774;2024-01-25T09:13:58;115150.97;;;-141.28;48.71
12358;BME280;6243;51.244;6.774;2024-01-25T09:16:23;115150.97;;;-141.28;48.11
12358;BME280;6243;51.244;6.774;2024-01-25T09:18:49;115150.97;;;-141.28;48.09
12358;BME280;6243;51.244;6.774;2024-01-25T09:21:14;115150.97;;;-141.28;48.33
12358;BME280;6243;51.244;6.774;2024-01-25T09:23:40;115150.97;;;-141.28;48.26
12358;BME280;6243;51.244;6.774;2024-01-25T09:26:05;115150.97;;;-141.28;48.00
12358;BME280;6243;51.244;6.774;2024-01-25T09:28:32;115150.97;;;-141.28;48.13
12358;BME280;6243;51.244;6.774;2024-01-25T09:30:58;115150.97;;;-141.28;48.09
12358;BME280;6243;51.244;6.774;2024-01-25T09:33:23;115150.97;;;-141.28;48.27
12358;BME280;6243;51.244;6.774;2024-01-25T09:35:49;115150.97;;;-141.28;48.10
12358;BME280;6243;51.244;6.774;2024-01-25T09:38:14;115150.97;;;-141.28;48.27
12358;BME280;6243;51.244;6.774;2024-01-25T09:40:40;115150.97;;;-141.28;48.09
12358;BME280;6243;51.244;6.774;2024-01-25T09:43:06;115150.97;;;-141.28;48.33
12358;BME280;6243;51.244;6.774;2024-01-25T09:45:33;115150.97;;;-141.28;47.91
12358;BME280;6243;51.244;6.774;2024-01-25T09:47:59;115150.97;;;-141.28;47.92
12358;BME280;6243;51.244;6.774;2024-01-25T09:50:24;115150.97;;;-141.28;48.27
12358;BME280;6243;51.244;6.774;2024-01-25T09:52:54;115150.97;;;-141.28;48.12
12358;BME280;6243;51.244;6.774;2024-01-25T09:55:23;115150.97;;;-141.28;48.00
12358;BME280;6243;51.244;6.774;2024-01-25T09:57:53;115150.97;;;-141.28;47.96
12358;BME280;6243;51.244;6.774;2024-01-25T10:00:19;115150.97;;;-141.28;48.28
12358;BME280;6243;51.244;6.774;2024-01-25T10:02:47;115150.97;;;-141.28;48.28
12358;BME280;6243;51.244;6.774;2024-01-25T10:05:13;115150.97;;;-141.28;48.00
12358;BME280;6243;51.244;6.774;2024-01-25T10:07:39;115150.97;;;-141.28;47.98
12358;BME280;6243;51.244;6.774;2024-01-25T10:10:05;115150.97;;;-141.28;47.78
12358;BME280;6243;51.244;6.774;2024-01-25T10:12:31;115150.97;;;-141.28;47.50
12358;BME280;6243;51.244;6.774;2024-01-25T10:14:56;115150.97;;;-141.28;47.62
12358;BME280;6243;51.244;6.774;2024-01-25T10:17:22;115150.97;;;-141.28;48.21
12358;BME280;6243;51.244;6.774;2024-01-25T10:19:49;115150.97;;;-141.28;48.33
12358;BME280;6243;51.244;6.774;2024-01-25T10:22:15;115150.97;;;-141.28;47.89
12358;BME280;6243;51.244;6.774;2024-01-25T10:24:40;115150.97;;;-141.28;47.87
12358;BME280;6243;51.244;6.774;2024-01-25T10:27:07;115150.97;;;-141.28;48.20
12358;BME280;6243;51.244;6.774;2024-01-25T10:29:34;115150.97;;;-141.28;47.90
12358;BME280;6243;51.244;6.774;2024-01-25T10:32:00;115150.97;;;-141.28;47.79
12358;BME280;6243;51.244;6.774;2024-01-25T10:34:26;115150.97;;;-141.28;47.62
12358;BME280;6243;51.244;6.774;2024-01-25T10:36:55;115150.97;;;-141.28;47.52
12358;BME280;6243;51.244;6.774;2024-01-25T10:39:21;115150.97;;;-141.28;47.85
12358;BME280;6243;51.244;6.774;2024-01-25T10:41:47;115150.97;;;-141.28;47.74
12358;BME280;6243;51.244;6.774;2024-01-25T10:44:13;115150.97;;;-141.28;47.38
12358;BME280;6243;51.244;6.774;2024-01-25T10:46:39;115150.97;;;-141.28;47.31
12358;BME280;6243;51.244;6.774;2024-01-25T10:49:05;115150.97;;;-141.28;47.03
12358;BME280;6243;51.244;6.774;2024-01-25T10:51:33;115150.97;;;-141.28;47.25
12358;BME280;6243;51.244;6.774;2024-01-25T10:54:00;115150.97;;;-141.28;47.19
12358;BME280;6243;51.244;6.774;2024-01-25T10:56:26;115150.97;;;-141.28;46.57
12358;BME280;6243;51.244;6.774;2024-01-25T10:58:53;115150.97;;;-141.28;46.26
12358;BME280;6243;51.244;6.774;2024-01-25T11:01:18;115150.97;;;-141.28;46.10
12358;BME280;6243;51.244;6.774;2024-01-25T11:03:46;115150.97;;;-141.28;46.16
12358;BME280;6243;51.244;6.774;2024-01-25T11:06:11;115150.97;;;-141.28;46.15
12358;BME280;6243;51.244;6.774;2024-01-25T11:08:37;115150.97;;;-141.28;46.26
12358;BME280;6243;51.244;6.774;2024-01-25T11:11:05;115150.97;;;-141.28;46.09
12358;BME280;6243;51.244;6.774;2024-01-25T11:13:31;115150.97;;;-141.28;46.18
12358;BME280;6243;51.244;6.774;2024-01-25T11:16:14;115150.97;;;-141.28;46.16
12358;BME280;6243;51.244;6.774;2024-01-25T11:18:48;115150.97;;;-141.28;45.96
12358;BME280;6243;51.244;6.774;2024-01-25T11:21:22;115150.97;;;-141.28;45.83
12358;BME280;6243;51.244;6.774;2024-01-25T11:23:47;115150.97;;;-141.28;45.76
12358;BME280;6243;51.244;6.774;2024-01-25T11:26:15;115150.97;;;-141.28;45.71
12358;BME280;6243;51.244;6.774;2024-01-25T11:28:41;115150.97;;;-141.28;45.74
12358;BME280;6243;51.244;6.774;2024-01-25T11:31:07;115150.97;;;-141.28;45.66
12358;BME280;6243;51.244;6.774;2024-01-25T11:33:32;115150.97;;;-141.28;45.63
12358;BME280;6243;51.244;6.774;2024-01-25T11:35:59;115150.97;;;-141.28;46.14
12358;BME280;6243;51.244;6.774;2024-01-25T11:38:24;115150.97;;;-141.28;45.66
12358;BME280;6243;51.244;6.774;2024-01-25T11:40:50;115150.97;;;-141.28;45.48
12358;BME280;6243;51.244;6.774;2024-01-25T11:43:17;115150.97;;;-141.28;45.94
12358;BME280;6243;51.244;6.774;2024-01-25T11:45:43;115150.97;;;-141.28;46.11
12358;BME280;6243;51.244;6.774;2024-01-25T11:48:08;115150.97;;;-141.28;45.68
12358;BME280;6243;51.244;6.774;2024-01-25T11:50:34;115150.97;;;-141.28;45.63
12358;BME280;6243;51.244;6.774;2024-01-25T11:53:00;115150.97;;;-141.28;45.66
12358;BME280;6243;51.244;6.774;2024-01-25T11:55:25;115150.97;;;-141.28;46.07
12358;BME280;6243;51.244;6.774;2024-01-25T11:57:51;115150.97;;;-141.28;46.13
12358;BME280;6243;51.244;6.774;2024-01-25T12:00:19;115150.97;;;-141.28;45.93
12358;BME280;6243;51.244;6.774;2024-01-25T12:02:44;115150.97;;;-141.28;46.03
12358;BME280;6243;51.244;6.774;2024-01-25T12:05:10;115150.97;;;-141.28;46.12
12358;BME280;6243;51.244;6.774;2024-01-25T12:07:36;115150.97;;;-141.28;46.39
12358;BME280;6243;51.244;6.774;2024-01-25T12:10:03;115150.97;;;-141.28;46.16
12358;BME280;6243;51.244;6.774;2024-01-25T12:12:29;115150.97;;;-141.28;45.91
12358;BME280;6243;51.244;6.774;2024-01-25T12:14:58;115150.97;;;-141.28;45.91
12358;BME280;6243;51.244;6.774;2024-01-25T12:17:26;115150.97;;;-141.28;45.84
12358;BME280;6243;51.244;6.774;2024-01-25T12:19:54;115150.97;;;-141.28;45.46
12358;BME280;6243;51.244;6.774;2024-01-25T12:22:20;115150.97;;;-141.28;46.03
12358;BME280;6243;51.244;6.774;2024-01-25T12:24:46;115150.97;;;-141.28;45.66
12358;BME280;6243;51.244;6.774;2024-01-25T12:27:11;115150.97;;;-141.28;45.66
12358;BME280;6243;51.244;6.774;2024-01-25T12:29:37;115150.97;;;-141.28;45.66
12358;BME280;6243;51.244;6.774;2024-01-25T12:32:03;115150.97;;;-141.28;45.71
12358;BME280;6243;51.244;6.774;2024-01-25T12:34:29;115150.97;;;-141.28;46.18